createdAt,value
2019-04-01T00:02:02.180Z,98229.84
2019-04-01T00:04:30.902Z,98230.25
2019-04-01T00:06:59.611Z,98226.13
2019-04-01T00:09:28.354Z,98226.00
2019-04-01T00:11:57.066Z,98229.44
2019-04-01T00:14:25.853Z,98225.56
2019-04-01T00:16:54.569Z,98222.58
2019-04-01T00:19:23.299Z,98225.69
2019-04-01T00:21:52.063Z,98220.80
2019-04-01T00:24:20.813Z,98223.06
2019-04-01T00:26:49.563Z,98219.88
2019-04-01T00:29:18.287Z,98221.69
2019-04-01T00:31:47.008Z,98220.32
2019-04-01T00:34:15.815Z,98216.89
2019-04-01T00:36:44.530Z,98211.38
2019-04-01T00:39:13.323Z,98214.32
2019-04-01T00:41:49.754Z,98212.02
2019-04-01T00:44:18.517Z,98212.42
2019-04-01T00:46:47.237Z,98211.02
2019-04-01T00:49:15.948Z,98214.92
2019-04-01T00:51:44.679Z,98219.56
2019-04-01T00:54:13.390Z,98222.82
2019-04-01T00:56:42.162Z,98219.92
2019-04-01T00:59:10.969Z,98220.08
2019-04-01T01:01:39.781Z,98223.14
2019-04-01T01:04:08.493Z,98218.75
2019-04-01T01:06:37.199Z,98215.05
2019-04-01T01:09:06.748Z,98213.95
2019-04-01T01:11:35.456Z,98215.61
2019-04-01T01:14:04.264Z,98223.23
2019-04-01T01:16:32.979Z,98213.64
2019-04-01T01:19:01.684Z,98214.81
2019-04-01T01:21:31.696Z,98213.40
2019-04-01T01:24:01.519Z,98210.14
2019-04-01T01:26:30.234Z,98207.20
2019-04-01T01:28:58.948Z,98203.05
2019-04-01T01:31:27.667Z,98202.77
2019-04-01T01:33:56.379Z,98197.81
2019-04-01T01:36:25.095Z,98201.87
2019-04-01T01:39:01.599Z,98177.34
2019-04-01T01:41:30.291Z,98198.86
2019-04-01T01:43:59.008Z,98206.63
2019-04-01T01:46:27.720Z,98200.75
2019-04-01T01:48:56.426Z,98200.63
2019-04-01T01:51:25.132Z,98204.66
2019-04-01T01:54:01.677Z,98195.23
2019-04-01T01:56:30.383Z,98200.39
2019-04-01T01:59:04.274Z,98201.67
2019-04-01T02:01:32.974Z,98195.47
2019-04-01T02:04:03.473Z,98202.67
2019-04-01T02:06:32.194Z,98207.02
2019-04-01T02:09:00.899Z,98208.67
2019-04-01T02:11:29.651Z,98209.87
2019-04-01T02:14:04.052Z,98206.69
2019-04-01T02:16:32.818Z,98214.11
2019-04-01T02:19:01.592Z,98213.50
2019-04-01T02:21:30.301Z,98211.84
2019-04-01T02:24:01.607Z,98203.19
2019-04-01T02:26:30.310Z,98208.78
2019-04-01T02:29:01.711Z,98207.73
2019-04-01T02:31:30.426Z,98204.58
2019-04-01T02:33:59.128Z,98202.77
2019-04-01T02:36:27.845Z,98203.17
2019-04-01T02:38:56.559Z,98201.01
2019-04-01T02:41:25.308Z,98202.95
2019-04-01T02:43:54.012Z,98197.63
2019-04-01T02:46:22.725Z,98198.88
2019-04-01T02:48:51.442Z,98192.39
2019-04-01T02:51:20.146Z,98193.43
2019-04-01T02:53:48.859Z,98188.89
2019-04-01T02:56:17.570Z,98183.95
2019-04-01T02:58:46.290Z,98192.09
2019-04-01T03:01:14.998Z,98189.19
2019-04-01T03:03:43.761Z,98188.13
2019-04-01T03:06:12.466Z,98185.27
2019-04-01T03:08:41.173Z,98186.18
2019-04-01T03:11:11.162Z,98187.58
2019-04-01T03:13:40.305Z,98181.34
2019-04-01T03:16:09.015Z,98184.22
2019-04-01T03:18:37.732Z,98186.27
2019-04-01T03:21:06.435Z,98184.05
2019-04-01T03:23:35.207Z,98192.14
2019-04-01T03:26:03.903Z,98196.05
2019-04-01T03:28:32.615Z,98198.48
2019-04-01T03:31:01.342Z,98192.94
2019-04-01T03:33:30.048Z,98203.01
2019-04-01T03:36:01.150Z,98203.11
2019-04-01T03:38:29.843Z,98210.87
2019-04-01T03:40:58.549Z,98210.70
2019-04-01T03:43:27.259Z,98208.23
2019-04-01T03:45:55.975Z,98205.70
2019-04-01T03:48:24.726Z,98213.03
2019-04-01T03:50:53.439Z,98217.06
2019-04-01T03:53:22.138Z,98221.69
2019-04-01T03:55:50.854Z,98216.39
2019-04-01T03:58:19.580Z,98217.10
2019-04-01T04:00:48.324Z,98213.20
2019-04-01T04:03:17.028Z,98206.98
2019-04-01T04:05:45.741Z,98209.31
2019-04-01T04:08:14.463Z,98215.84
2019-04-01T04:10:43.164Z,98216.14
2019-04-01T04:13:11.944Z,98213.56
2019-04-01T04:15:40.713Z,98219.06
2019-04-01T04:18:09.417Z,98219.23
2019-04-01T04:20:38.172Z,98215.97
2019-04-01T04:23:06.858Z,98216.75
2019-04-01T04:25:35.618Z,98217.92
2019-04-01T04:28:04.338Z,98216.05
2019-04-01T04:30:33.051Z,98216.77
2019-04-01T04:33:04.286Z,98210.86
2019-04-01T04:35:33.196Z,98207.11
2019-04-01T04:38:03.627Z,98207.88
2019-04-01T04:40:32.312Z,98215.02
2019-04-01T04:43:01.026Z,98221.16
2019-04-01T04:45:29.738Z,98221.01
2019-04-01T04:47:58.452Z,98224.13
2019-04-01T04:50:27.201Z,98227.27
2019-04-01T04:53:04.576Z,98230.67
2019-04-01T04:55:33.337Z,98229.50
2019-04-01T04:58:02.053Z,98231.52
2019-04-01T05:00:30.767Z,98226.25
2019-04-01T05:03:04.492Z,98229.70
2019-04-01T05:05:33.206Z,98232.63
2019-04-01T05:08:03.716Z,98225.94
2019-04-01T05:10:32.681Z,98232.33
2019-04-01T05:13:01.392Z,98228.31
2019-04-01T05:15:30.119Z,98232.30
2019-04-01T05:17:58.855Z,98231.59
2019-04-01T05:20:28.204Z,98228.13
2019-04-01T05:22:57.322Z,98233.49
2019-04-01T05:25:26.228Z,98236.98
2019-04-01T05:28:01.179Z,98239.52
2019-04-01T05:30:32.558Z,98243.61
2019-04-01T05:33:03.263Z,98242.30
2019-04-01T05:35:34.885Z,98241.98
2019-04-01T05:38:04.398Z,98230.25
2019-04-01T05:40:33.122Z,98233.20
2019-04-01T05:43:01.934Z,98234.45
2019-04-01T05:45:30.701Z,98234.80
2019-04-01T05:47:59.410Z,98237.55
2019-04-01T05:50:28.118Z,98239.17
2019-04-01T05:53:01.242Z,98248.34
2019-04-01T05:55:29.957Z,98253.06
2019-04-01T05:58:01.380Z,98259.14
2019-04-01T06:00:37.732Z,98267.23
2019-04-01T06:03:06.494Z,98260.42
2019-04-01T06:05:35.206Z,98256.98
2019-04-01T06:08:04.847Z,98261.20
2019-04-01T06:10:33.562Z,98257.58
2019-04-01T06:13:02.276Z,98266.62
2019-04-01T06:15:31.439Z,98248.67
2019-04-01T06:18:04.908Z,98260.55
2019-04-01T06:20:33.625Z,98261.93
2019-04-01T06:23:02.350Z,98260.56
2019-04-01T06:25:31.078Z,98269.55
2019-04-01T06:28:01.891Z,98270.10
2019-04-01T06:30:30.599Z,98271.08
2019-04-01T06:32:59.302Z,98277.76
2019-04-01T06:35:28.018Z,98273.02
2019-04-01T06:37:56.743Z,98277.66
2019-04-01T06:40:25.492Z,98280.22
2019-04-01T06:42:54.207Z,98285.70
2019-04-01T06:45:22.919Z,98289.75
2019-04-01T06:47:51.639Z,98289.17
2019-04-01T06:50:20.358Z,98289.70
2019-04-01T06:52:49.109Z,98289.49
2019-04-01T06:55:17.822Z,98295.81
2019-04-01T06:57:46.540Z,98295.59
2019-04-01T07:00:15.254Z,98297.24
2019-04-01T07:02:43.967Z,98292.22
2019-04-01T07:05:12.932Z,98291.17
2019-04-01T07:07:41.923Z,98295.88
2019-04-01T07:10:10.737Z,98299.76
2019-04-01T07:12:39.849Z,98301.45
2019-04-01T07:15:08.762Z,98297.29
2019-04-01T07:17:37.540Z,98295.95
2019-04-01T07:20:08.927Z,98298.53
2019-04-01T07:22:37.590Z,98301.91
2019-04-01T07:25:06.314Z,98297.98
2019-04-01T07:27:35.520Z,98296.85
2019-04-01T07:30:06.275Z,98299.71
2019-04-01T07:32:35.103Z,98295.27
2019-04-01T07:35:04.823Z,98271.09
2019-04-01T07:37:33.545Z,98285.74
2019-04-01T07:40:02.366Z,98289.72
2019-04-01T07:42:31.143Z,98286.03
2019-04-01T07:44:59.855Z,98292.25
2019-04-01T07:47:28.561Z,98291.44
2019-04-01T07:50:02.644Z,98266.33
2019-04-01T07:52:31.766Z,98292.23
2019-04-01T07:55:02.169Z,98292.23
2019-04-01T07:57:32.606Z,98293.36
2019-04-01T08:00:01.318Z,98292.19
2019-04-01T08:02:30.042Z,98287.00
2019-04-01T08:04:59.465Z,98290.27
2019-04-01T08:07:28.227Z,98290.66
2019-04-01T08:10:03.437Z,98288.05
2019-04-01T08:12:32.165Z,98286.28
2019-04-01T08:15:01.894Z,98285.39
2019-04-01T08:17:30.600Z,98283.33
2019-04-01T08:20:08.810Z,98281.72
2019-04-01T08:22:37.618Z,98289.14
2019-04-01T08:25:09.207Z,98285.65
2019-04-01T08:27:37.942Z,98279.96
2019-04-01T08:30:10.969Z,98285.23
2019-04-01T08:32:39.817Z,98279.21
2019-04-01T08:35:08.628Z,98281.44
2019-04-01T08:37:40.239Z,98275.79
2019-04-01T08:40:08.180Z,98281.04
2019-04-01T08:42:36.890Z,98279.30
2019-04-01T08:45:08.235Z,98273.67
2019-04-01T08:47:36.954Z,98271.09
2019-04-01T08:50:09.380Z,98264.12
2019-04-01T08:52:38.097Z,98264.11
2019-04-01T08:55:07.902Z,98256.67
2019-04-01T08:57:36.661Z,98254.52
2019-04-01T09:00:07.447Z,98250.16
2019-04-01T09:02:36.162Z,98248.86
2019-04-01T09:05:07.088Z,98246.23
2019-04-01T09:07:35.791Z,98245.34
2019-04-01T09:10:05.754Z,98245.30
2019-04-01T09:12:34.865Z,98247.03
2019-04-01T09:15:04.474Z,98243.96
2019-04-01T09:17:33.188Z,98243.52
2019-04-01T09:20:05.888Z,98235.23
2019-04-01T09:22:34.641Z,98235.16
2019-04-01T09:25:03.442Z,98242.52
2019-04-01T09:27:32.190Z,98228.59
2019-04-01T09:30:05.983Z,98232.78
2019-04-01T09:32:34.688Z,98239.87
2019-04-01T09:35:04.154Z,98237.20
2019-04-01T09:37:32.844Z,98238.56
2019-04-01T09:40:01.553Z,98230.61
2019-04-01T09:42:30.272Z,98227.55
2019-04-01T09:44:58.985Z,98224.06
2019-04-01T09:47:27.736Z,98217.03
2019-04-01T09:49:56.446Z,98218.78
2019-04-01T09:52:25.153Z,98215.70
2019-04-01T09:54:53.865Z,98209.03
2019-04-01T09:57:22.589Z,98210.25
2019-04-01T09:59:51.347Z,98204.11
2019-04-01T10:02:31.184Z,98199.86
2019-04-01T10:04:50.476Z,98206.38
2019-04-01T10:07:19.214Z,98206.33
2019-04-01T10:09:47.923Z,98204.45
2019-04-01T10:12:16.681Z,98202.89
2019-04-01T10:14:45.383Z,98203.32
2019-04-01T10:17:14.087Z,98208.11
2019-04-01T10:19:42.796Z,98205.28
2019-04-01T10:22:11.516Z,98200.89
2019-04-01T10:24:40.267Z,98198.51
2019-04-01T10:27:08.971Z,98193.28
2019-04-01T10:29:37.684Z,98197.16
2019-04-01T10:32:06.400Z,98196.73
2019-04-01T10:34:35.098Z,98193.36
2019-04-01T10:37:03.944Z,98189.84
2019-04-01T10:39:32.646Z,98185.50
2019-04-01T10:42:01.354Z,98180.55
2019-04-01T10:44:30.059Z,98173.60
2019-04-01T10:46:58.771Z,98172.77
2019-04-01T10:49:27.549Z,98172.67
2019-04-01T10:51:56.253Z,98177.39
2019-04-01T10:54:24.974Z,98175.16
2019-04-01T10:56:53.777Z,98165.20
2019-04-01T10:59:22.500Z,98172.00
2019-04-01T11:01:51.302Z,98172.70
2019-04-01T11:04:20.061Z,98160.34
2019-04-01T11:06:48.825Z,98143.99
2019-04-01T11:09:17.585Z,98143.59
2019-04-01T11:11:46.245Z,98142.70
2019-04-01T11:14:14.990Z,98140.02
2019-04-01T11:16:43.696Z,98133.77
2019-04-01T11:19:12.402Z,98131.95
2019-04-01T11:21:41.118Z,98129.30
2019-04-01T11:24:09.821Z,98128.16
2019-04-01T11:26:38.576Z,98123.84
2019-04-01T11:29:07.282Z,98130.41
2019-04-01T11:31:35.992Z,98123.53
2019-04-01T11:34:04.713Z,98126.30
2019-04-01T11:36:33.441Z,98135.52
2019-04-01T11:39:02.224Z,98127.73
2019-04-01T11:41:30.948Z,98128.92
2019-04-01T11:43:59.703Z,98121.62
2019-04-01T11:46:28.467Z,98117.63
2019-04-01T11:48:57.281Z,98124.07
2019-04-01T11:51:33.590Z,98119.37
2019-04-01T11:53:56.438Z,98113.70
2019-04-01T11:56:26.704Z,98114.97
2019-04-01T11:59:01.574Z,98111.70
2019-04-01T12:01:30.282Z,98109.44
2019-04-01T12:04:04.159Z,98106.46
2019-04-01T12:06:32.865Z,98113.48
2019-04-01T12:09:01.570Z,98109.91
2019-04-01T12:11:30.320Z,98106.81
2019-04-01T12:13:59.029Z,98101.03
2019-04-01T12:16:27.733Z,98101.33
2019-04-01T12:19:03.692Z,98095.39
2019-04-01T12:21:32.379Z,98105.03
2019-04-01T12:24:02.245Z,98096.17
2019-04-01T12:26:30.960Z,98104.80
2019-04-01T12:28:59.675Z,98087.41
2019-04-01T12:31:28.396Z,98087.25
2019-04-01T12:33:57.209Z,98074.34
2019-04-01T12:36:25.962Z,98077.33
2019-04-01T12:38:54.678Z,98073.59
2019-04-01T12:41:23.393Z,98060.08
2019-04-01T12:43:52.116Z,98065.13
2019-04-01T12:46:20.826Z,98063.67
2019-04-01T12:48:49.573Z,98055.89
2019-04-01T12:51:18.281Z,98060.72
2019-04-01T12:53:46.984Z,98052.92
2019-04-01T12:56:15.702Z,98055.45
2019-04-01T12:58:44.423Z,98052.56
2019-04-01T13:01:13.170Z,98049.02
2019-04-01T13:03:41.874Z,98053.55
2019-04-01T13:06:10.591Z,98056.33
2019-04-01T13:08:39.306Z,98053.30
2019-04-01T13:11:08.015Z,98053.92
2019-04-01T13:13:36.757Z,98048.38
2019-04-01T13:16:08.889Z,98038.67
2019-04-01T13:18:38.173Z,98041.77
2019-04-01T13:21:06.337Z,98042.14
2019-04-01T13:23:35.042Z,98052.19
2019-04-01T13:26:04.173Z,98042.95
2019-04-01T13:28:32.881Z,98049.95
2019-04-01T13:31:02.970Z,98049.64
2019-04-01T13:33:31.721Z,98047.41
2019-04-01T13:36:00.437Z,98049.97
2019-04-01T13:38:29.179Z,98045.73
2019-04-01T13:40:57.892Z,98038.58
2019-04-01T13:43:26.603Z,98042.80
2019-04-01T13:46:02.246Z,98040.73
2019-04-01T13:48:30.949Z,98037.19
2019-04-01T13:51:03.755Z,98032.47
2019-04-01T13:53:32.468Z,98035.50
2019-04-01T13:56:01.180Z,98031.36
2019-04-01T13:58:29.900Z,98032.35
2019-04-01T14:00:58.605Z,98024.27
2019-04-01T14:03:27.347Z,98029.44
2019-04-01T14:05:56.052Z,98026.92
2019-04-01T14:08:24.761Z,98020.23
2019-04-01T14:10:54.490Z,98021.58
2019-04-01T14:13:23.261Z,98020.47
2019-04-01T14:15:52.015Z,98027.91
2019-04-01T14:18:20.725Z,98021.19
2019-04-01T14:20:49.435Z,98024.28
2019-04-01T14:23:18.573Z,98026.19
2019-04-01T14:25:47.560Z,98018.22
2019-04-01T14:28:16.329Z,98021.91
2019-04-01T14:30:45.058Z,98023.45
2019-04-01T14:33:13.562Z,98021.18
2019-04-01T14:35:45.029Z,98024.45
2019-04-01T14:38:12.716Z,98025.38
2019-04-01T14:40:41.477Z,98027.66
2019-04-01T14:43:10.333Z,98024.27
2019-04-01T14:45:38.977Z,98031.72
2019-04-01T14:48:08.627Z,98024.78
2019-04-01T14:50:37.785Z,98028.88
2019-04-01T14:53:06.536Z,98023.77
2019-04-01T14:55:35.243Z,98029.91
2019-04-01T14:58:03.956Z,98025.93
2019-04-01T15:00:32.680Z,98022.17
2019-04-01T15:03:01.397Z,98023.27
2019-04-01T15:05:30.147Z,98031.16
2019-04-01T15:07:58.854Z,98030.64
2019-04-01T15:10:27.557Z,98030.34
2019-04-01T15:13:05.887Z,98034.05
2019-04-01T15:15:32.804Z,98031.09
2019-04-01T15:18:02.368Z,98029.59
2019-04-01T15:20:31.074Z,98030.06
2019-04-01T15:22:59.793Z,98028.53
2019-04-01T15:25:28.532Z,98026.70
2019-04-01T15:27:58.308Z,98025.64
2019-04-01T15:30:27.558Z,98031.30
2019-04-01T15:33:02.902Z,98026.84
2019-04-01T15:35:31.633Z,98034.83
2019-04-01T15:38:02.920Z,98029.06
2019-04-01T15:40:33.377Z,98029.34
2019-04-01T15:43:02.136Z,98030.19
2019-04-01T15:45:31.351Z,98038.13
2019-04-01T15:48:00.242Z,98033.82
2019-04-01T15:50:29.224Z,98038.36
2019-04-01T15:52:57.979Z,98034.05
2019-04-01T15:55:26.689Z,98027.98
2019-04-01T15:58:02.362Z,98025.89
2019-04-01T16:00:32.033Z,98029.77
2019-04-01T16:03:04.345Z,98029.15
2019-04-01T16:05:34.142Z,98021.39
2019-04-01T16:08:03.062Z,98027.67
2019-04-01T16:10:31.805Z,98033.45
2019-04-01T16:13:03.289Z,98029.20
2019-04-01T16:15:32.549Z,98040.69
2019-04-01T16:18:02.339Z,98038.94
2019-04-01T16:20:34.077Z,98041.55
2019-04-01T16:23:02.347Z,98036.95
2019-04-01T16:25:31.094Z,98040.91
2019-04-01T16:28:03.095Z,98044.41
2019-04-01T16:30:31.865Z,98043.75
2019-04-01T16:33:00.569Z,98046.06
2019-04-01T16:35:29.298Z,98052.91
2019-04-01T16:37:59.484Z,98056.55
2019-04-01T16:40:28.541Z,98068.13
2019-04-01T16:42:57.254Z,98066.02
2019-04-01T16:45:25.962Z,98066.96
2019-04-01T16:48:03.026Z,98074.05
2019-04-01T16:50:31.785Z,98078.94
2019-04-01T16:53:05.079Z,98076.08
2019-04-01T16:55:33.889Z,98083.11
2019-04-01T16:58:03.223Z,98079.44
2019-04-01T17:00:32.544Z,98078.58
2019-04-01T17:03:01.257Z,98084.73
2019-04-01T17:05:34.069Z,98091.39
2019-04-01T17:08:03.031Z,98091.05
2019-04-01T17:10:33.542Z,98096.29
2019-04-01T17:13:02.708Z,98099.92
2019-04-01T17:15:31.455Z,98100.39
2019-04-01T17:18:00.166Z,98108.27
2019-04-01T17:20:28.877Z,98115.30
2019-04-01T17:23:05.919Z,98120.61
2019-04-01T17:25:34.702Z,98127.59
2019-04-01T17:28:09.106Z,98127.68
2019-04-01T17:30:37.818Z,98138.18
2019-04-01T17:33:08.350Z,98140.41
2019-04-01T17:35:37.009Z,98145.22
2019-04-01T17:38:07.064Z,98151.33
2019-04-01T17:40:36.011Z,98153.50
2019-04-01T17:43:05.651Z,98164.37
2019-04-01T17:45:37.210Z,98171.36
2019-04-01T17:48:07.326Z,98144.41
2019-04-01T17:50:36.040Z,98176.20
2019-04-01T17:53:06.250Z,98181.41
2019-04-01T17:55:35.105Z,98187.09
2019-04-01T17:58:04.720Z,98189.28
2019-04-01T18:00:35.002Z,98187.98
2019-04-01T18:03:09.265Z,98194.50
2019-04-01T18:05:36.807Z,98196.67
2019-04-01T18:08:05.609Z,98204.48
2019-04-01T18:10:34.335Z,98207.52
2019-04-01T18:13:03.048Z,98209.71
2019-04-01T18:15:31.799Z,98215.36
2019-04-01T18:18:10.075Z,98214.88
2019-04-01T18:20:38.932Z,98215.75
2019-04-01T18:23:07.796Z,98221.37
2019-04-01T18:25:36.506Z,98226.13
2019-04-01T18:28:05.221Z,98233.53
2019-04-01T18:30:35.079Z,98237.86
2019-04-01T18:33:04.231Z,98241.35
2019-04-01T18:35:33.012Z,98232.65
2019-04-01T18:38:01.705Z,98241.32
2019-04-01T18:40:33.219Z,98244.84
2019-04-01T18:43:05.922Z,98250.48
2019-04-01T18:45:34.636Z,98260.45
2019-04-01T18:48:03.346Z,98259.11
2019-04-01T18:50:32.065Z,98256.48
2019-04-01T18:53:00.775Z,98264.27
2019-04-01T18:55:31.157Z,98267.38
2019-04-01T18:58:06.024Z,98276.05
2019-04-01T19:00:34.743Z,98274.31
2019-04-01T19:03:03.473Z,98275.11
2019-04-01T19:05:32.226Z,98275.58
2019-04-01T19:08:00.932Z,98284.63
2019-04-01T19:10:29.683Z,98287.66
2019-04-01T19:13:07.541Z,98286.75
2019-04-01T19:15:36.847Z,98294.98
2019-04-01T19:18:07.011Z,98292.72
2019-04-01T19:20:35.719Z,98293.92
2019-04-01T19:23:04.432Z,98303.02
2019-04-01T19:25:33.217Z,98305.16
2019-04-01T19:28:06.949Z,98305.02
2019-04-01T19:30:35.675Z,98304.58
2019-04-01T19:33:06.755Z,98301.96
2019-04-01T19:35:35.728Z,98299.71
2019-04-01T19:38:07.180Z,98295.77
2019-04-01T19:40:35.711Z,98295.70
2019-04-01T19:43:04.423Z,98297.33
2019-04-01T19:45:33.271Z,98299.88
2019-04-01T19:48:02.365Z,98300.25
2019-04-01T19:50:32.207Z,98302.92
2019-04-01T19:53:05.378Z,98302.14
2019-04-01T19:55:34.367Z,98305.95
2019-04-01T19:58:06.690Z,98309.03
2019-04-01T20:00:35.396Z,98310.24
2019-04-01T20:03:04.142Z,98315.47
2019-04-01T20:05:32.868Z,98313.20
2019-04-01T20:08:01.595Z,98313.48
2019-04-01T20:10:30.312Z,98315.65
2019-04-01T20:13:05.926Z,98319.11
2019-04-01T20:15:34.643Z,98319.94
2019-04-01T20:18:03.613Z,98319.06
2019-04-01T20:20:32.334Z,98322.11
2019-04-01T20:23:01.046Z,98328.16
2019-04-01T20:25:29.766Z,98329.45
2019-04-01T20:28:05.076Z,98327.24
2019-04-01T20:30:33.906Z,98331.19
2019-04-01T20:33:02.630Z,98331.96
2019-04-01T20:35:34.385Z,98337.91
2019-04-01T20:38:02.909Z,98333.88
2019-04-01T20:40:31.616Z,98338.21
2019-04-01T20:43:00.330Z,98336.83
2019-04-01T20:45:29.048Z,98336.70
2019-04-01T20:47:57.758Z,98343.31
2019-04-01T20:50:28.018Z,98351.59
2019-04-01T20:53:05.191Z,98349.71
2019-04-01T20:55:33.904Z,98345.68
2019-04-01T20:58:03.912Z,98354.45
2019-04-01T21:00:32.714Z,98351.36
2019-04-01T21:03:01.690Z,98349.02
2019-04-01T21:05:30.513Z,98349.56
2019-04-01T21:07:59.227Z,98352.94
2019-04-01T21:10:27.986Z,98351.17
2019-04-01T21:12:56.707Z,98352.02
2019-04-01T21:15:25.423Z,98350.66
2019-04-01T21:17:54.133Z,98349.34
2019-04-01T21:20:22.845Z,98348.83
2019-04-01T21:22:51.548Z,98350.95
2019-04-01T21:25:20.315Z,98350.55
2019-04-01T21:27:49.025Z,98360.94
2019-04-01T21:30:17.834Z,98354.02
2019-04-01T21:32:46.582Z,98356.98
2019-04-01T21:35:15.297Z,98357.38
2019-04-01T21:37:44.016Z,98354.84
2019-04-01T21:40:13.078Z,98360.45
2019-04-01T21:42:43.134Z,98362.14
2019-04-01T21:45:12.278Z,98357.31
2019-04-01T21:47:41.201Z,98364.23
2019-04-01T21:50:10.520Z,98362.97
2019-04-01T21:52:39.225Z,98368.80
2019-04-01T21:55:08.611Z,98361.30
2019-04-01T21:57:37.604Z,98368.61
2019-04-01T22:00:17.891Z,98378.13
2019-04-01T22:02:45.713Z,98379.97
2019-04-01T22:05:14.725Z,98377.77
2019-04-01T22:07:43.480Z,98375.51
2019-04-01T22:10:12.287Z,98382.86
2019-04-01T22:12:40.986Z,98378.72
2019-04-01T22:15:09.911Z,98382.90
2019-04-01T22:17:38.653Z,98384.56
2019-04-01T22:20:07.795Z,98390.25
2019-04-01T22:22:37.449Z,98393.83
2019-04-01T22:25:06.185Z,98399.41
2019-04-01T22:27:34.905Z,98407.00
2019-04-01T22:30:07.065Z,98408.44
2019-04-01T22:32:35.803Z,98414.89
2019-04-01T22:35:07.975Z,98412.48
2019-04-01T22:37:37.482Z,98417.19
2019-04-01T22:40:07.643Z,98422.38
2019-04-01T22:42:36.345Z,98424.05
2019-04-01T22:45:07.007Z,98429.73
2019-04-01T22:47:35.712Z,98432.79
2019-04-01T22:50:06.757Z,98438.86
2019-04-01T22:52:35.828Z,98439.97
2019-04-01T22:55:05.932Z,98437.00
2019-04-01T22:57:34.762Z,98440.03
2019-04-01T23:00:03.883Z,98440.85
2019-04-01T23:02:32.590Z,98436.36
2019-04-01T23:05:05.413Z,98434.09
2019-04-01T23:07:34.122Z,98438.34
2019-04-01T23:10:02.836Z,98431.81
2019-04-01T23:12:31.558Z,98439.49
2019-04-01T23:15:00.265Z,98441.54
2019-04-01T23:17:29.010Z,98433.61
2019-04-01T23:20:06.419Z,98434.56
2019-04-01T23:22:35.167Z,98438.78
2019-04-01T23:25:04.278Z,98440.14
2019-04-01T23:27:32.995Z,98441.85
2019-04-01T23:30:09.394Z,98443.21
2019-04-01T23:32:38.102Z,98445.42
2019-04-01T23:35:08.169Z,98444.13
2019-04-01T23:37:38.082Z,98441.03
2019-04-01T23:40:07.682Z,98437.39
2019-04-01T23:42:37.963Z,98436.09
2019-04-01T23:45:08.874Z,98438.18
2019-04-01T23:47:37.645Z,98444.20
2019-04-01T23:50:09.899Z,98440.94
2019-04-01T23:52:38.863Z,98444.17
2019-04-01T23:55:08.168Z,98442.40
2019-04-01T23:57:36.875Z,98436.41
